Time;durP1;ratioP1;P1;durP2;ratioP2;P2;SDS_P1;SDS_P2;PMS_P1;PMS_P2;Temp;Humidity;BMP_temperature;BMP_pressure;BME280_temperature;BME280_humidity;BME280_pressure;Samples;Min_cycle;Max_cycle;Signal;HPM_P1;HPM_P2
2022/01/19 00:00:48;;;;;;;;;;;5.20;99.90;;;;;;8373172;28;19924;-70
2022/01/19 00:05:24;;;;;;;;;;;5.10;99.90;;;;;;8383880;28;19924;-70
2022/01/19 00:09:26;;;;;;;;;;;5.00;99.90;;;;;;8390241;28;19947;-70
2022/01/19 00:13:28;;;;;;;;;;;4.90;99.90;;;;;;8393443;28;20499;-71
2022/01/19 00:17:29;;;;;;;;;;;4.80;99.90;;;;;;8390753;28;20292;-70
2022/01/19 00:21:32;;;;;;;;;;;4.60;99.90;;;;;;8376586;28;19963;-70
2022/01/19 00:25:34;;;;;;;;;;;4.50;99.90;;;;;;8389571;28;19929;-69
2022/01/19 00:29:36;;;;;;;;;;;4.40;99.90;;;;;;8394786;28;19924;-70
2022/01/19 00:33:38;;;;;;;;;;;4.30;99.90;;;;;;8387935;28;19924;-70
2022/01/19 00:37:41;;;;;;;;;;;4.20;99.90;;;;;;8398101;28;19924;-70
2022/01/19 00:41:43;;;;;;;;;;;4.10;99.90;;;;;;8392874;28;19925;-70
2022/01/19 00:45:45;;;;;;;;;;;4.10;99.90;;;;;;8390978;28;19956;-70
2022/01/19 00:50:03;;;;;;;;;;;4.10;99.90;;;;;;8390391;28;19932;-71
2022/01/19 00:54:04;;;;;;;;;;;4.00;99.90;;;;;;8388794;28;19929;-70
2022/01/19 00:58:06;;;;;;;;;;;3.90;99.90;;;;;;8388949;28;19999;-70
2022/01/19 01:02:07;;;;;;;;;;;3.80;99.90;;;;;;8386184;28;19929;-70
2022/01/19 01:06:09;;;;;;;;;;;3.70;99.90;;;;;;8375572;28;20269;-70
2022/01/19 01:10:13;;;;;;;;;;;3.80;99.90;;;;;;8389836;28;19925;-69
2022/01/19 01:18:18;;;;;;;;;;;4.00;99.90;;;;;;8388178;28;20028;-70
2022/01/19 01:22:20;;;;;;;;;;;4.10;99.90;;;;;;8390561;28;20124;-70
2022/01/19 01:26:21;;;;;;;;;;;4.00;99.90;;;;;;8371595;28;19956;-70
2022/01/19 01:30:23;;;;;;;;;;;3.80;99.90;;;;;;8375689;28;19959;-70
2022/01/19 01:34:25;;;;;;;;;;;3.70;99.90;;;;;;8388992;28;19991;-69
2022/01/19 01:38:26;;;;;;;;;;;3.70;99.90;;;;;;8387500;28;19972;-70
2022/01/19 01:42:41;;;;;;;;;;;3.70;99.90;;;;;;8387194;28;20370;-69
2022/01/19 01:46:49;;;;;;;;;;;3.70;99.90;;;;;;8370318;28;20372;-70
2022/01/19 01:55:14;;;;;;;;;;;3.50;99.90;;;;;;8378148;28;19932;-69
2022/01/19 01:59:15;;;;;;;;;;;3.50;99.90;;;;;;8365753;28;19924;-69
2022/01/19 02:03:17;;;;;;;;;;;3.40;99.90;;;;;;8378662;28;19963;-70
2022/01/19 02:07:33;;;;;;;;;;;3.30;99.90;;;;;;8377923;28;19972;-71
2022/01/19 02:25:00;;;;;;;;;;;3.00;99.90;;;;;;8387202;28;19958;-70
2022/01/19 02:29:22;;;;;;;;;;;3.00;99.90;;;;;;8383165;28;20352;-69
2022/01/19 02:42:53;;;;;;;;;;;2.70;99.90;;;;;;8323470;28;19931;-70
2022/01/19 02:51:17;;;;;;;;;;;2.70;99.90;;;;;;8397381;28;19947;-70
2022/01/19 02:55:19;;;;;;;;;;;2.60;99.90;;;;;;8368481;28;19929;-69
2022/01/19 02:59:29;;;;;;;;;;;2.60;99.90;;;;;;8387113;28;19975;-69
2022/01/19 03:12:20;;;;;;;;;;;2.40;99.90;;;;;;8390083;28;20040;-70
2022/01/19 03:16:22;;;;;;;;;;;2.40;99.90;;;;;;8370313;28;19932;-69
2022/01/19 03:20:24;;;;;;;;;;;2.30;99.90;;;;;;8376284;28;20385;-69
2022/01/19 03:24:25;;;;;;;;;;;2.30;99.90;;;;;;8393719;28;19976;-69
2022/01/19 03:28:27;;;;;;;;;;;2.20;99.90;;;;;;8393550;28;19928;-69
2022/01/19 03:32:29;;;;;;;;;;;2.20;99.90;;;;;;8396638;28;19932;-70
2022/01/19 03:36:30;;;;;;;;;;;2.20;99.90;;;;;;8377268;28;20387;-70
2022/01/19 03:40:32;;;;;;;;;;;2.10;99.90;;;;;;8389593;28;19925;-69
2022/01/19 03:44:34;;;;;;;;;;;2.10;99.90;;;;;;8397858;28;20296;-70
2022/01/19 03:48:39;;;;;;;;;;;2.10;99.90;;;;;;8391331;28;19928;-69
2022/01/19 03:52:41;;;;;;;;;;;2.10;99.90;;;;;;8394162;28;19932;-69
2022/01/19 03:56:43;;;;;;;;;;;2.10;99.90;;;;;;8392099;28;19971;-69
2022/01/19 04:00:45;;;;;;;;;;;2.00;99.90;;;;;;8384116;28;20192;-70
2022/01/19 04:04:53;;;;;;;;;;;2.00;99.90;;;;;;8388238;28;19932;-70
2022/01/19 04:09:10;;;;;;;;;;;2.00;99.90;;;;;;8396588;28;20015;-70
2022/01/19 04:13:25;;;;;;;;;;;1.90;99.90;;;;;;8380884;28;20288;-70
2022/01/19 04:17:26;;;;;;;;;;;1.90;99.90;;;;;;8376050;28;19924;-70
2022/01/19 04:21:28;;;;;;;;;;;2.00;99.90;;;;;;8389001;28;19925;-69
2022/01/19 04:25:33;;;;;;;;;;;2.00;99.90;;;;;;8375567;28;20384;-70
2022/01/19 04:29:35;;;;;;;;;;;2.00;99.90;;;;;;8382021;28;20388;-69
2022/01/19 04:33:41;;;;;;;;;;;2.00;99.90;;;;;;8375061;28;19971;-70
2022/01/19 04:54:47;;;;;;;;;;;2.00;99.90;;;;;;8393569;28;19956;-69
2022/01/19 05:03:20;;;;;;;;;;;1.90;99.90;;;;;;8383137;28;20363;-70
2022/01/19 05:07:32;;;;;;;;;;;1.90;99.90;;;;;;8386626;28;19925;-70
2022/01/19 05:15:54;;;;;;;;;;;1.90;99.90;;;;;;8393480;28;19975;-69
2022/01/19 05:19:56;;;;;;;;;;;1.90;99.90;;;;;;8390523;28;20352;-70
2022/01/19 05:24:03;;;;;;;;;;;1.90;99.90;;;;;;8400594;28;19931;-70
2022/01/19 05:28:05;;;;;;;;;;;1.90;99.90;;;;;;8394706;28;19932;-70
2022/01/19 05:32:07;;;;;;;;;;;1.90;99.90;;;;;;8389340;28;19964;-69
2022/01/19 05:36:10;;;;;;;;;;;1.90;99.90;;;;;;8385365;28;19928;-69
2022/01/19 05:40:15;;;;;;;;;;;1.90;99.90;;;;;;8385301;28;20046;-70
2022/01/19 05:44:19;;;;;;;;;;;2.00;99.90;;;;;;8391600;28;21358;-69
2022/01/19 05:48:21;;;;;;;;;;;2.00;99.90;;;;;;8386346;28;19928;-69
2022/01/19 05:52:22;;;;;;;;;;;2.00;99.90;;;;;;8390560;28;19964;-69
2022/01/19 05:56:24;;;;;;;;;;;2.10;99.90;;;;;;8388136;28;19971;-69
2022/01/19 06:00:25;;;;;;;;;;;2.10;99.90;;;;;;8364673;28;19974;-70
2022/01/19 06:04:27;;;;;;;;;;;2.20;99.90;;;;;;8391198;28;19955;-70
2022/01/19 06:08:40;;;;;;;;;;;2.20;99.90;;;;;;8382566;28;19924;-69
2022/01/19 06:12:42;;;;;;;;;;;2.30;99.90;;;;;;8381094;28;19935;-69
2022/01/19 06:16:45;;;;;;;;;;;2.30;99.90;;;;;;8381747;28;19928;-69
2022/01/19 06:20:47;;;;;;;;;;;2.30;99.90;;;;;;8379073;28;20012;-69
2022/01/19 06:24:48;;;;;;;;;;;2.30;99.90;;;;;;8388723;28;20245;-69
2022/01/19 06:28:51;;;;;;;;;;;2.30;99.90;;;;;;8381640;28;19944;-70
2022/01/19 06:32:52;;;;;;;;;;;2.40;99.90;;;;;;8392639;28;19971;-70
2022/01/19 06:36:54;;;;;;;;;;;2.50;99.90;;;;;;8370912;28;19924;-70
2022/01/19 06:40:56;;;;;;;;;;;2.50;99.90;;;;;;8395922;28;19951;-70
2022/01/19 06:44:58;;;;;;;;;;;2.60;99.90;;;;;;8386223;28;19924;-70
2022/01/19 06:48:59;;;;;;;;;;;2.60;99.90;;;;;;8382461;28;20318;-70
2022/01/19 06:53:01;;;;;;;;;;;2.70;99.90;;;;;;8388277;28;19951;-69
2022/01/19 06:57:03;;;;;;;;;;;2.70;99.90;;;;;;8374832;28;20279;-69
2022/01/19 07:01:04;;;;;;;;;;;2.80;99.90;;;;;;8368900;28;19933;-69
2022/01/19 07:05:06;;;;;;;;;;;2.90;99.90;;;;;;8393009;28;20230;-70
2022/01/19 07:09:08;;;;;;;;;;;2.90;99.90;;;;;;8380629;28;19983;-70
2022/01/19 07:13:10;;;;;;;;;;;2.90;99.90;;;;;;8396839;28;20062;-70
2022/01/19 07:17:12;;;;;;;;;;;2.90;99.90;;;;;;8371522;28;19924;-70
2022/01/19 07:21:13;;;;;;;;;;;3.00;99.90;;;;;;8380638;28;19925;-70
2022/01/19 07:25:16;;;;;;;;;;;3.00;99.90;;;;;;8387578;28;19970;-69
2022/01/19 07:29:17;;;;;;;;;;;3.10;99.90;;;;;;8388987;28;19924;-70
2022/01/19 07:33:19;;;;;;;;;;;3.10;99.90;;;;;;8394365;28;19968;-70
2022/01/19 07:37:20;;;;;;;;;;;3.10;99.90;;;;;;8391850;28;20391;-70
2022/01/19 07:41:22;;;;;;;;;;;3.10;99.90;;;;;;8393211;28;19979;-70
2022/01/19 07:45:24;;;;;;;;;;;3.10;99.90;;;;;;8374726;28;20012;-70
2022/01/19 07:49:26;;;;;;;;;;;3.10;99.90;;;;;;8376817;28;19962;-70
2022/01/19 07:53:27;;;;;;;;;;;3.20;99.90;;;;;;8392288;28;20398;-70
2022/01/19 07:57:29;;;;;;;;;;;3.20;99.90;;;;;;8385882;28;20420;-69
2022/01/19 08:01:31;;;;;;;;;;;3.20;99.90;;;;;;8386449;28;19925;-69
2022/01/19 08:05:33;;;;;;;;;;;3.20;99.90;;;;;;8388324;28;20312;-69
2022/01/19 08:09:35;;;;;;;;;;;3.20;99.90;;;;;;8387681;28;19925;-69
2022/01/19 08:13:37;;;;;;;;;;;3.30;99.90;;;;;;8401259;28;19978;-70
2022/01/19 08:17:38;;;;;;;;;;;3.30;99.90;;;;;;8391488;28;19931;-69
2022/01/19 08:21:40;;;;;;;;;;;3.30;99.90;;;;;;8369408;28;20027;-69
2022/01/19 08:25:41;;;;;;;;;;;3.30;99.90;;;;;;8378620;28;19968;-70
2022/01/19 08:29:43;;;;;;;;;;;3.30;99.90;;;;;;8386567;28;19954;-69
2022/01/19 08:33:45;;;;;;;;;;;3.30;99.90;;;;;;8392131;28;19972;-69
2022/01/19 08:37:47;;;;;;;;;;;3.30;99.90;;;;;;8392142;28;19924;-70
2022/01/19 08:41:49;;;;;;;;;;;3.30;99.90;;;;;;8372837;28;19944;-70
2022/01/19 08:45:51;;;;;;;;;;;3.40;99.90;;;;;;8394954;28;19932;-69
2022/01/19 08:49:53;;;;;;;;;;;3.40;99.90;;;;;;8388295;28;19970;-70
2022/01/19 08:53:54;;;;;;;;;;;3.40;99.90;;;;;;8393094;28;19932;-70
2022/01/19 08:57:56;;;;;;;;;;;3.40;99.90;;;;;;8393186;28;19936;-70
2022/01/19 09:01:58;;;;;;;;;;;3.40;99.90;;;;;;8378708;28;20347;-71
2022/01/19 09:05:59;;;;;;;;;;;3.40;99.90;;;;;;8392008;28;19931;-70
2022/01/19 09:10:01;;;;;;;;;;;3.40;99.90;;;;;;8386702;28;19924;-70
2022/01/19 09:14:06;;;;;;;;;;;3.50;99.90;;;;;;8394824;28;19925;-70
2022/01/19 09:18:07;;;;;;;;;;;3.50;99.90;;;;;;8383300;28;19924;-70
2022/01/19 09:22:10;;;;;;;;;;;3.50;99.90;;;;;;8373977;28;20210;-70
2022/01/19 09:26:12;;;;;;;;;;;3.50;99.90;;;;;;8370321;28;19932;-70
2022/01/19 09:30:15;;;;;;;;;;;3.60;99.90;;;;;;8357044;28;20418;-70
2022/01/19 09:34:20;;;;;;;;;;;3.60;99.90;;;;;;8386532;28;20328;-70
2022/01/19 09:38:23;;;;;;;;;;;3.60;99.90;;;;;;8386919;28;20327;-70
2022/01/19 09:42:25;;;;;;;;;;;3.60;99.90;;;;;;8385788;28;19960;-70
2022/01/19 09:46:26;;;;;;;;;;;3.60;99.90;;;;;;8384923;28;19972;-70
2022/01/19 09:50:32;;;;;;;;;;;3.70;99.90;;;;;;8377227;28;19985;-70
2022/01/19 09:54:34;;;;;;;;;;;3.70;99.90;;;;;;8387082;28;19931;-70
2022/01/19 09:58:35;;;;;;;;;;;3.70;99.90;;;;;;8390745;28;20022;-70
2022/01/19 10:02:37;;;;;;;;;;;3.70;99.90;;;;;;8374273;28;19943;-70
2022/01/19 10:06:38;;;;;;;;;;;3.80;99.90;;;;;;8381250;28;19929;-69
2022/01/19 10:10:40;;;;;;;;;;;3.80;99.90;;;;;;8374406;28;19976;-70
2022/01/19 10:19:14;;;;;;;;;;;3.90;99.90;;;;;;8390171;28;19943;-70
2022/01/19 10:23:36;;;;;;;;;;;4.00;99.90;;;;;;8389494;28;19939;-70
2022/01/19 10:27:42;;;;;;;;;;;4.00;99.90;;;;;;8375704;28;20285;-70
2022/01/19 10:31:46;;;;;;;;;;;4.00;99.90;;;;;;8363569;28;19925;-70
2022/01/19 10:35:48;;;;;;;;;;;4.00;99.90;;;;;;8386424;28;20316;-70
2022/01/19 10:39:51;;;;;;;;;;;4.00;99.90;;;;;;8370068;28;19932;-70
2022/01/19 10:43:53;;;;;;;;;;;4.10;99.90;;;;;;8383784;28;19925;-70
2022/01/19 10:47:56;;;;;;;;;;;4.10;99.90;;;;;;8395373;28;19925;-70
2022/01/19 10:51:58;;;;;;;;;;;4.10;99.90;;;;;;8386589;28;20008;-70
2022/01/19 10:56:02;;;;;;;;;;;4.20;99.90;;;;;;8376614;28;19931;-70
2022/01/19 11:00:15;;;;;;;;;;;4.20;99.90;;;;;;8365007;28;19967;-70
2022/01/19 11:04:17;;;;;;;;;;;4.20;99.90;;;;;;8382905;28;19955;-69
2022/01/19 11:08:20;;;;;;;;;;;4.20;99.90;;;;;;8376303;28;19968;-70
2022/01/19 11:12:25;;;;;;;;;;;4.20;99.90;;;;;;8391604;28;19947;-70
2022/01/19 11:16:31;;;;;;;;;;;4.20;99.90;;;;;;8389878;28;19933;-70
2022/01/19 11:20:39;;;;;;;;;;;4.20;99.90;;;;;;8380371;28;19928;-70
2022/01/19 11:24:52;;;;;;;;;;;4.20;99.90;;;;;;8388920;28;19931;-70
2022/01/19 11:28:55;;;;;;;;;;;4.20;99.90;;;;;;8372002;28;19931;-70
2022/01/19 11:33:10;;;;;;;;;;;4.30;99.90;;;;;;8386865;28;19928;-70
2022/01/19 11:37:12;;;;;;;;;;;4.30;99.90;;;;;;8384387;28;20023;-70
2022/01/19 11:41:13;;;;;;;;;;;4.30;99.90;;;;;;8382649;28;19975;-71
2022/01/19 11:45:33;;;;;;;;;;;4.40;99.90;;;;;;8391472;28;19933;-71
2022/01/19 11:49:53;;;;;;;;;;;4.40;99.90;;;;;;8383617;28;20244;-70
2022/01/19 11:54:01;;;;;;;;;;;4.60;99.90;;;;;;8389555;28;19931;-71
2022/01/19 11:58:16;;;;;;;;;;;4.70;99.90;;;;;;8396742;28;20403;-70
2022/01/19 12:02:22;;;;;;;;;;;4.80;99.90;;;;;;8399614;28;19988;-69
2022/01/19 12:06:44;;;;;;;;;;;4.90;99.90;;;;;;8381691;28;20147;-70
2022/01/19 12:10:48;;;;;;;;;;;5.00;99.90;;;;;;8389426;28;19932;-70
2022/01/19 12:14:56;;;;;;;;;;;5.10;99.90;;;;;;8386840;28;19954;-70
2022/01/19 12:19:01;;;;;;;;;;;5.20;99.90;;;;;;8390072;28;19925;-70
2022/01/19 12:23:21;;;;;;;;;;;5.10;99.90;;;;;;8379469;28;19989;-70
2022/01/19 12:27:25;;;;;;;;;;;5.10;99.90;;;;;;8386631;28;19925;-70
2022/01/19 12:31:31;;;;;;;;;;;5.10;99.90;;;;;;8395469;28;19974;-71
2022/01/19 12:35:35;;;;;;;;;;;5.20;99.90;;;;;;8402008;28;19932;-71
2022/01/19 12:39:39;;;;;;;;;;;5.20;99.90;;;;;;8389999;28;20405;-70
2022/01/19 12:43:43;;;;;;;;;;;5.20;99.90;;;;;;8385134;28;19971;-70
2022/01/19 12:47:51;;;;;;;;;;;5.30;99.90;;;;;;8375437;28;19966;-70
2022/01/19 12:51:53;;;;;;;;;;;5.30;99.90;;;;;;8385412;28;20414;-70
2022/01/19 12:56:00;;;;;;;;;;;5.30;99.90;;;;;;8388299;28;20407;-70
2022/01/19 13:00:04;;;;;;;;;;;5.30;99.90;;;;;;8385639;28;19935;-70
2022/01/19 13:04:06;;;;;;;;;;;5.30;99.90;;;;;;8392373;28;19958;-70
2022/01/19 13:08:08;;;;;;;;;;;5.30;99.90;;;;;;8385320;28;19936;-69
2022/01/19 13:12:12;;;;;;;;;;;5.30;99.90;;;;;;8378114;28;19924;-69
2022/01/19 13:16:23;;;;;;;;;;;5.30;99.90;;;;;;8390139;28;19924;-69
2022/01/19 13:20:26;;;;;;;;;;;5.30;99.90;;;;;;8395629;28;20372;-69
2022/01/19 13:24:31;;;;;;;;;;;5.30;99.90;;;;;;8393060;28;19935;-69
2022/01/19 13:28:34;;;;;;;;;;;5.30;99.90;;;;;;8401782;28;19969;-69
2022/01/19 13:32:38;;;;;;;;;;;5.30;99.90;;;;;;8389762;28;20343;-69
2022/01/19 13:36:40;;;;;;;;;;;5.30;99.90;;;;;;8386369;28;19971;-69
2022/01/19 13:40:41;;;;;;;;;;;5.30;99.90;;;;;;8387877;28;20411;-69
2022/01/19 13:44:48;;;;;;;;;;;5.40;99.90;;;;;;8386522;28;19939;-70
2022/01/19 13:48:58;;;;;;;;;;;5.40;99.90;;;;;;8364362;28;19929;-69
2022/01/19 13:53:00;;;;;;;;;;;5.40;99.90;;;;;;8384419;28;19929;-70
2022/01/19 13:57:02;;;;;;;;;;;5.50;99.90;;;;;;8388177;28;19974;-70
2022/01/19 14:01:07;;;;;;;;;;;5.50;99.90;;;;;;8389702;28;19925;-70
2022/01/19 14:05:09;;;;;;;;;;;5.50;99.90;;;;;;8401470;28;19932;-69
2022/01/19 14:09:31;;;;;;;;;;;5.50;99.90;;;;;;8372840;28;20295;-70
2022/01/19 14:13:37;;;;;;;;;;;5.50;99.90;;;;;;8386402;28;19931;-69
2022/01/19 14:17:41;;;;;;;;;;;5.50;99.90;;;;;;8385251;28;20371;-69
2022/01/19 14:22:01;;;;;;;;;;;5.60;99.90;;;;;;8384550;28;19924;-69
2022/01/19 14:26:07;;;;;;;;;;;5.60;99.90;;;;;;8393673;28;19932;-69
2022/01/19 14:30:23;;;;;;;;;;;5.60;99.90;;;;;;8383385;28;19933;-69
2022/01/19 14:34:32;;;;;;;;;;;5.60;99.90;;;;;;8400961;28;19960;-69
2022/01/19 14:38:38;;;;;;;;;;;5.60;99.90;;;;;;8390474;28;20241;-69
2022/01/19 14:42:40;;;;;;;;;;;5.60;99.90;;;;;;8367500;28;19936;-69
2022/01/19 14:46:45;;;;;;;;;;;5.60;99.90;;;;;;8380505;28;20501;-69
2022/01/19 14:50:48;;;;;;;;;;;5.50;99.90;;;;;;8371732;28;20307;-70
2022/01/19 14:54:49;;;;;;;;;;;5.50;99.90;;;;;;8391394;28;19929;-69
2022/01/19 14:59:03;;;;;;;;;;;5.50;99.90;;;;;;8384648;28;20288;-69
2022/01/19 15:03:05;;;;;;;;;;;5.50;99.90;;;;;;8372682;28;20384;-70
2022/01/19 15:07:08;;;;;;;;;;;5.50;99.90;;;;;;8370753;28;19932;-70
2022/01/19 15:11:11;;;;;;;;;;;5.50;99.90;;;;;;8390181;28;19930;-70
2022/01/19 15:15:12;;;;;;;;;;;5.40;99.90;;;;;;8401772;28;19924;-69
2022/01/19 15:19:14;;;;;;;;;;;5.40;99.90;;;;;;8385281;28;19978;-70
2022/01/19 15:23:17;;;;;;;;;;;5.40;99.90;;;;;;8391394;28;19925;-69
2022/01/19 15:27:19;;;;;;;;;;;5.40;99.90;;;;;;8394883;28;19928;-69
2022/01/19 15:31:20;;;;;;;;;;;5.50;99.90;;;;;;8388734;28;19947;-69
2022/01/19 15:35:22;;;;;;;;;;;5.40;99.90;;;;;;8399083;28;19947;-70
2022/01/19 15:39:24;;;;;;;;;;;5.50;99.90;;;;;;8391643;28;19967;-70
2022/01/19 15:43:26;;;;;;;;;;;5.50;99.90;;;;;;8377239;28;19959;-69
2022/01/19 15:47:27;;;;;;;;;;;5.50;99.90;;;;;;8392799;28;19990;-69
2022/01/19 15:51:29;;;;;;;;;;;5.50;99.90;;;;;;8396161;28;19973;-69
2022/01/19 15:55:30;;;;;;;;;;;5.60;99.90;;;;;;8366080;28;20376;-69
2022/01/19 15:59:50;;;;;;;;;;;5.60;99.90;;;;;;8360792;28;20014;-70
2022/01/19 16:03:52;;;;;;;;;;;5.70;99.90;;;;;;8350943;28;19975;-69
2022/01/19 16:07:54;;;;;;;;;;;5.70;99.90;;;;;;8347594;28;24735;-69
2022/01/19 16:11:57;;;;;;;;;;;5.70;99.90;;;;;;8364371;28;19936;-69
2022/01/19 16:15:59;;;;;;;;;;;5.70;99.90;;;;;;8345763;28;19964;-69
2022/01/19 16:20:00;;;;;;;;;;;5.80;99.90;;;;;;8341051;28;19925;-69
2022/01/19 16:28:23;;;;;;;;;;;5.80;99.90;;;;;;8364725;28;19928;-69
2022/01/19 16:32:24;;;;;;;;;;;5.90;99.90;;;;;;8359622;28;19978;-69
2022/01/19 16:36:26;;;;;;;;;;;5.90;99.90;;;;;;8343479;28;19979;-69
2022/01/19 16:40:29;;;;;;;;;;;5.90;99.90;;;;;;8340214;28;20406;-69
2022/01/19 16:44:31;;;;;;;;;;;6.00;99.90;;;;;;8359616;28;19932;-69
2022/01/19 16:48:34;;;;;;;;;;;6.00;99.90;;;;;;8345889;28;19978;-69
2022/01/19 16:52:36;;;;;;;;;;;6.10;99.90;;;;;;8360023;28;20043;-69
2022/01/19 16:56:38;;;;;;;;;;;6.10;99.90;;;;;;8357995;28;19932;-69
2022/01/19 17:00:39;;;;;;;;;;;6.20;99.90;;;;;;8358981;28;19928;-69
2022/01/19 17:04:41;;;;;;;;;;;6.20;99.90;;;;;;8341603;28;19981;-69
2022/01/19 17:08:43;;;;;;;;;;;6.20;99.90;;;;;;8373009;28;20284;-69
2022/01/19 17:12:46;;;;;;;;;;;6.30;99.90;;;;;;8370689;28;19932;-69
2022/01/19 17:16:58;;;;;;;;;;;6.30;99.90;;;;;;8358462;28;19940;-69
2022/01/19 17:20:59;;;;;;;;;;;6.40;99.90;;;;;;8365333;28;20032;-69
2022/01/19 17:25:01;;;;;;;;;;;6.40;99.90;;;;;;8371644;28;20391;-69
2022/01/19 17:29:03;;;;;;;;;;;6.40;99.90;;;;;;8341103;28;19982;-69
2022/01/19 17:33:04;;;;;;;;;;;6.40;99.90;;;;;;8360401;28;19936;-69
2022/01/19 17:37:06;;;;;;;;;;;6.50;99.90;;;;;;8349797;28;19963;-69
2022/01/19 17:41:08;;;;;;;;;;;6.50;99.90;;;;;;8342043;28;20614;-69
2022/01/19 17:45:18;;;;;;;;;;;6.50;99.90;;;;;;8370531;28;20045;-69
2022/01/19 17:53:42;;;;;;;;;;;6.60;99.90;;;;;;8355555;28;19936;-69
2022/01/19 17:57:44;;;;;;;;;;;6.60;99.90;;;;;;8370147;28;19925;-69
2022/01/19 18:01:46;;;;;;;;;;;6.60;99.90;;;;;;8348403;28;19932;-69
2022/01/19 18:05:48;;;;;;;;;;;6.60;99.90;;;;;;8360065;28;19987;-69
2022/01/19 18:09:51;;;;;;;;;;;6.60;99.90;;;;;;8358480;28;19924;-69
2022/01/19 18:13:54;;;;;;;;;;;6.60;99.90;;;;;;8357275;28;20269;-69
2022/01/19 18:17:56;;;;;;;;;;;6.60;99.90;;;;;;8359208;28;19925;-69
2022/01/19 18:21:59;;;;;;;;;;;6.50;99.90;;;;;;8340199;28;19932;-69
2022/01/19 18:26:01;;;;;;;;;;;6.50;99.90;;;;;;8370968;28;19976;-69
2022/01/19 18:30:03;;;;;;;;;;;6.50;99.90;;;;;;8355035;28;19964;-70
2022/01/19 18:34:04;;;;;;;;;;;6.50;99.90;;;;;;8364028;28;19929;-70
2022/01/19 18:38:06;;;;;;;;;;;6.50;99.90;;;;;;8361027;28;20276;-70
2022/01/19 18:42:08;;;;;;;;;;;6.40;99.90;;;;;;8358250;28;19932;-70
2022/01/19 18:46:10;;;;;;;;;;;6.40;99.90;;;;;;8338230;28;20257;-70
2022/01/19 18:50:12;;;;;;;;;;;6.40;99.90;;;;;;8358001;28;19931;-69
2022/01/19 18:54:15;;;;;;;;;;;6.40;99.90;;;;;;8344735;28;19929;-69
2022/01/19 18:58:16;;;;;;;;;;;6.40;99.90;;;;;;8362553;28;19971;-69
2022/01/19 19:02:19;;;;;;;;;;;6.40;99.90;;;;;;8352011;28;19933;-69
2022/01/19 19:06:20;;;;;;;;;;;6.40;99.90;;;;;;8356603;28;20423;-69
2022/01/19 19:14:24;;;;;;;;;;;6.30;99.90;;;;;;8355521;28;19952;-69
2022/01/19 19:18:26;;;;;;;;;;;6.20;99.90;;;;;;8363435;28;20063;-69
2022/01/19 19:22:28;;;;;;;;;;;6.20;99.90;;;;;;8355199;28;20019;-69
2022/01/19 19:26:30;;;;;;;;;;;6.20;99.90;;;;;;8359613;28;19967;-69
2022/01/19 19:30:34;;;;;;;;;;;6.20;99.90;;;;;;8354432;28;19990;-69
2022/01/19 19:34:36;;;;;;;;;;;6.20;99.90;;;;;;8356430;28;19924;-69
2022/01/19 19:38:39;;;;;;;;;;;6.20;99.90;;;;;;8351309;28;19971;-69
2022/01/19 19:42:41;;;;;;;;;;;6.20;99.90;;;;;;8355639;28;19924;-69
2022/01/19 19:46:43;;;;;;;;;;;6.20;99.90;;;;;;8357680;28;20012;-69
2022/01/19 19:50:45;;;;;;;;;;;6.10;99.90;;;;;;8352049;28;19954;-69
2022/01/19 19:54:47;;;;;;;;;;;6.10;99.90;;;;;;8358213;28;19936;-69
2022/01/19 19:58:48;;;;;;;;;;;6.00;99.90;;;;;;8352611;28;20039;-69
2022/01/19 20:02:50;;;;;;;;;;;5.90;99.90;;;;;;8359058;28;19971;-69
2022/01/19 20:07:12;;;;;;;;;;;5.90;99.90;;;;;;8365653;28;19928;-69
2022/01/19 20:11:15;;;;;;;;;;;5.80;99.90;;;;;;8374252;28;19932;-70
2022/01/19 20:15:18;;;;;;;;;;;5.80;99.90;;;;;;8367623;28;19925;-69
2022/01/19 20:19:19;;;;;;;;;;;5.70;99.90;;;;;;8375537;28;20411;-69
2022/01/19 20:23:23;;;;;;;;;;;5.70;99.90;;;;;;8349286;28;19964;-69
2022/01/19 20:27:25;;;;;;;;;;;5.60;99.90;;;;;;8374205;28;19931;-69
2022/01/19 20:31:26;;;;;;;;;;;5.60;99.90;;;;;;8371503;28;19929;-70
2022/01/19 20:35:31;;;;;;;;;;;5.60;99.90;;;;;;8355701;28;19935;-69
2022/01/19 20:39:32;;;;;;;;;;;5.60;99.90;;;;;;8372124;28;19992;-69
2022/01/19 20:43:35;;;;;;;;;;;5.50;99.90;;;;;;8384123;28;20274;-69
2022/01/19 20:47:37;;;;;;;;;;;5.60;99.90;;;;;;8371159;28;20287;-69
2022/01/19 20:51:39;;;;;;;;;;;5.60;99.90;;;;;;8373670;28;19972;-69
2022/01/19 20:55:41;;;;;;;;;;;5.60;99.90;;;;;;8365871;28;20736;-69
2022/01/19 20:59:44;;;;;;;;;;;5.60;99.90;;;;;;8369965;28;19940;-70
2022/01/19 21:03:47;;;;;;;;;;;5.60;99.90;;;;;;8360434;28;19925;-69
2022/01/19 21:07:49;;;;;;;;;;;5.50;99.90;;;;;;8367377;28;19965;-69
2022/01/19 21:11:50;;;;;;;;;;;5.50;99.90;;;;;;8371764;28;20375;-68
2022/01/19 21:15:53;;;;;;;;;;;5.40;99.90;;;;;;8377463;28;19975;-69
2022/01/19 21:19:55;;;;;;;;;;;5.30;99.90;;;;;;8361903;28;19963;-69
2022/01/19 21:23:57;;;;;;;;;;;5.20;99.90;;;;;;8359237;28;19925;-69
2022/01/19 21:27:59;;;;;;;;;;;5.20;99.90;;;;;;8374674;28;19951;-70
2022/01/19 21:32:05;;;;;;;;;;;5.10;99.90;;;;;;8351136;28;20304;-70
2022/01/19 21:36:07;;;;;;;;;;;5.00;99.90;;;;;;8367417;28;19929;-69
2022/01/19 21:40:09;;;;;;;;;;;4.90;99.90;;;;;;8363218;28;20385;-70
2022/01/19 21:44:10;;;;;;;;;;;4.90;99.90;;;;;;8346705;28;20380;-68
2022/01/19 21:48:12;;;;;;;;;;;4.90;99.90;;;;;;8371066;28;19940;-69
2022/01/19 21:52:14;;;;;;;;;;;4.90;99.90;;;;;;8368438;28;19928;-69
2022/01/19 21:56:16;;;;;;;;;;;4.90;99.90;;;;;;8351315;28;20325;-69
2022/01/19 22:00:18;;;;;;;;;;;4.80;99.90;;;;;;8364162;28;19924;-69
2022/01/19 22:04:20;;;;;;;;;;;4.80;99.90;;;;;;8395395;28;19943;-69
2022/01/19 22:08:22;;;;;;;;;;;4.70;99.90;;;;;;8395090;28;20307;-69
2022/01/19 22:12:23;;;;;;;;;;;4.70;99.90;;;;;;8396457;28;19932;-70
2022/01/19 22:16:25;;;;;;;;;;;4.60;99.90;;;;;;8388368;28;19932;-69
2022/01/19 22:20:27;;;;;;;;;;;4.60;99.90;;;;;;8390187;28;19955;-69
2022/01/19 22:24:29;;;;;;;;;;;4.50;99.90;;;;;;8376493;28;19924;-70
2022/01/19 22:28:34;;;;;;;;;;;4.50;99.90;;;;;;8389462;28;19932;-69
2022/01/19 22:32:36;;;;;;;;;;;4.50;99.90;;;;;;8397430;28;19924;-69
2022/01/19 22:36:44;;;;;;;;;;;4.40;99.90;;;;;;8381361;28;19924;-69
2022/01/19 22:40:46;;;;;;;;;;;4.40;99.90;;;;;;8389632;28;19925;-69
2022/01/19 22:44:49;;;;;;;;;;;4.40;99.90;;;;;;8394313;28;19969;-69
2022/01/19 22:48:50;;;;;;;;;;;4.40;99.90;;;;;;8373838;28;19932;-69
2022/01/19 22:52:56;;;;;;;;;;;4.40;99.90;;;;;;8388151;28;19925;-69
2022/01/19 22:56:57;;;;;;;;;;;4.40;99.90;;;;;;8368153;28;19976;-69
2022/01/19 23:00:59;;;;;;;;;;;4.30;99.90;;;;;;8376628;28;20050;-69
2022/01/19 23:05:01;;;;;;;;;;;4.30;99.90;;;;;;8390466;28;19933;-69
2022/01/19 23:09:04;;;;;;;;;;;4.30;99.90;;;;;;8399799;28;19924;-69
2022/01/19 23:13:05;;;;;;;;;;;4.30;99.90;;;;;;8376311;28;20368;-69
2022/01/19 23:17:08;;;;;;;;;;;4.30;99.90;;;;;;8391921;28;19929;-69
2022/01/19 23:21:09;;;;;;;;;;;4.30;99.90;;;;;;8402401;28;19932;-69
2022/01/19 23:25:11;;;;;;;;;;;4.40;99.90;;;;;;8384261;28;19929;-69
2022/01/19 23:29:13;;;;;;;;;;;4.40;99.90;;;;;;8391069;28;19951;-69
2022/01/19 23:33:20;;;;;;;;;;;4.40;99.90;;;;;;8385180;28;19979;-70
2022/01/19 23:50:11;;;;;;;;;;;4.50;99.90;;;;;;8375369;28;19951;-69
2022/01/19 23:54:13;;;;;;;;;;;4.50;99.90;;;;;;8403428;28;19976;-69
2022/01/19 23:58:20;;;;;;;;;;;4.50;99.90;;;;;;8377229;28;19928;-69
